Flight Track Log - Related Links

Times and Time Zones

All times are in EDT time to prevent confusion due to time zone crossing. See the UAL395 flight status page for this flight to view local times or setup timezone preferences in your user account.

Time Position Orientation Groundspeed Altitude Reporting Facility
EDT Latitude Longitude Course Direction KTS MPH feet Rate Location/Type
Fri 07:58:29 PM 41.9667 -87.9500 270° West 173 199 1,900  Level Chicago TRACON
Fri 07:59:29 PM 41.9667 -88.0167 270° West 216 249 3,300 1,789 Climbing Chicago TRACON
Fri 08:00:23 PM 41.9500 -88.1000 255° West 265 305 5,300 2,481 Climbing Chicago TRACON
Fri 08:01:13 PM 41.9483 -88.1856 269° West 272 313 7,600 2,679 Climbing Chicago Center
Fri 08:02:15 PM 41.9414 -88.2883 265° West 278 320 10,300 2,244 Climbing Chicago Center
Fri 08:03:16 PM 41.9350 -88.3981 266° West 296 341 12,200 2,049 Climbing Chicago Center
Fri 08:04:18 PM 41.9269 -88.5192 265° West 323 372 14,500 2,081 Climbing Chicago Center
Fri 08:05:20 PM 41.9186 -88.6450 265° West 337 388 16,500 2,129 Climbing Chicago Center
Fri 08:06:22 PM 41.9100 -88.7992 266° West 345 397 18,900 1,984 Climbing Chicago Center
Fri 08:07:24 PM 41.9011 -88.9328 265° West 358 412 20,600 1,645 Climbing Chicago Center
Fri 08:08:26 PM 41.8936 -89.0678 266° West 364 419 22,300 1,500 Climbing Chicago Center
Fri 08:09:28 PM 41.8856 -89.2064 266° West 375 432 23,700 1,403 Climbing Chicago Center
Fri 08:10:30 PM 41.8781 -89.3467 266° West 379 436 25,200 1,016 Climbing Chicago Center
Fri 08:11:32 PM 41.8539 -89.5214 260° West 401 461 25,800 532 Climbing Chicago Center
Fri 08:12:34 PM 41.8286 -89.6747 258° West 419 482 26,300 677 Climbing Chicago Center
Fri 08:13:36 PM 41.8047 -89.8353 259° West 439 505 27,200 823 Climbing Chicago Center
Fri 08:14:38 PM 41.7803 -90.0061 259° West 449 517 28,000 387 Climbing Chicago Center
Fri 08:15:40 PM 41.7553 -90.1678 258° West 447 514 28,000  Level Chicago Center
Fri 08:16:42 PM 41.7292 -90.3219 257° West 432 497 28,000 49 Level Chicago Center
Fri 08:17:43 PM 41.6650 -90.4489 236° Southwest 418 481 28,100 927 Climbing Chicago Center
Fri 08:18:45 PM 41.5978 -90.5686 233° Southwest 408 470 29,900 1,584 Climbing Chicago Center
Fri 08:19:48 PM 41.5431 -90.7019 241° Southwest 370 426 31,400 1,056 Climbing Chicago Center
Fri 08:20:50 PM 41.5331 -90.8258 264° West 343 395 32,100 581 Climbing Chicago Center
Fri 08:21:52 PM 41.5222 -90.9664 264° West 347 399 32,600 532 Climbing Chicago Center
Fri 08:22:54 PM 41.5119 -91.1003 264° West 361 415 33,200 484 Climbing Chicago Center
Fri 08:23:56 PM 41.5003 -91.2358 263° West 366 421 33,600 435 Climbing Chicago Center
Fri 08:24:58 PM 41.4892 -91.3856 264° West 372 428 34,100 581 Climbing Chicago Center
Fri 08:26:00 PM 41.4778 -91.5244 264° West 377 434 34,800 585 Climbing Chicago Center
Fri 08:27:01 PM 41.4661 -91.6644 264° West 380 437 35,300 585 Climbing Chicago Center
Fri 08:28:03 PM 41.4514 -91.8300 263° West 378 435 36,000 339 Climbing Chicago Center
Fri 08:29:05 PM 41.4397 -91.9703 264° West 382 440 36,000  Level Chicago Center
Fri 08:30:07 PM 41.4275 -92.1164 264° West 396 456 36,000  Level Chicago Center
Fri 08:31:09 PM 41.4136 -92.2656 263° West 405 466 36,000  Level Chicago Center
Fri 08:32:11 PM 41.4006 -92.4147 263° West 409 471 36,000  Level Chicago Center
Fri 08:33:14 PM 41.3844 -92.5911 263° West 405 466 36,000  Level Chicago Center
Fri 08:34:16 PM 41.3706 -92.7394 263° West 408 470 36,000  Level Chicago Center
Fri 08:35:18 PM 41.3569 -92.8839 263° West 402 463 36,000  Level Chicago Center
Fri 08:36:20 PM 41.3428 -93.0328 263° West 409 471 36,000  Level Chicago Center
Fri 08:37:22 PM 41.3278 -93.1781 262° West 404 465 36,000  Level Chicago Center
Fri 08:38:24 PM 41.3106 -93.3578 263° West 410 472 36,000  Level Chicago Center
Fri 08:39:26 PM 41.2958 -93.5067 263° West 411 473 36,000  Level Chicago Center
Fri 08:40:28 PM 41.2800 -93.6561 262° West 412 474 36,000  Level Chicago Center
Fri 08:41:30 PM 41.2658 -93.8031 263° West 409 471 36,000  Level Chicago Center
Fri 08:42:33 PM 41.2500 -93.9792 263° West 410 472 36,000  Level Minneapolis Center
Fri 08:43:35 PM 41.2342 -94.1272 262° West 409 471 36,000  Level Minneapolis Center
Fri 08:44:37 PM 41.2172 -94.2767 261° West 412 474 36,000  Level Minneapolis Center
Fri 08:45:39 PM 41.1994 -94.4264 261° West 410 472 36,000  Level Minneapolis Center
Fri 08:46:41 PM 41.1847 -94.5778 263° West 414 476 36,000  Level Minneapolis Center
Fri 08:47:43 PM 41.1647 -94.7606 262° West 418 481 36,000  Level Minneapolis Center
Fri 08:48:45 PM 41.1467 -94.9131 261° West 418 481 36,000  Level Minneapolis Center
Fri 08:49:47 PM 41.1286 -95.0656 261° West 419 482 36,000  Level Minneapolis Center
Fri 08:50:49 PM 41.1114 -95.2172 261° West 417 480 36,000  Level Minneapolis Center
Fri 08:51:51 PM 41.0931 -95.3694 261° West 417 480 36,000  Level Minneapolis Center
Fri 08:52:53 PM 41.0744 -95.5239 261° West 421 484 36,000  Level Minneapolis Center
Fri 08:53:55 PM 41.0550 -95.6761 260° West 418 481 36,000  Level Minneapolis Center
Fri 08:54:57 PM 41.0319 -95.8597 261° West 418 481 36,000  Level Minneapolis Center
Fri 08:56:00 PM 41.0134 -96.0188 260° West  Level FlightAware Approximate
Fri 08:56:00 PM 41.0128 -96.0150 260° West 422 486 36,000  Level Minneapolis Center
Fri 08:57:02 PM 40.9953 -96.1700 262° West 422 486 36,000  Level Minneapolis Center
Fri 08:58:04 PM 40.9764 -96.3231 261° West 421 484 36,000  Level Minneapolis Center
Fri 08:59:06 PM 40.9561 -96.4767 260° West 423 487 36,000  Level Minneapolis Center
Fri 09:00:08 PM 40.9369 -96.6294 261° West 421 484 36,000  Level Minneapolis Center
Fri 09:01:10 PM 40.9139 -96.7808 259° West 420 483 36,000  Level Minneapolis Center
Fri 09:02:12 PM 40.8606 -96.9594 249° West 434 499 36,000  Level Minneapolis Center
Fri 09:03:14 PM 40.8186 -97.1061 249° West 431 496 36,000  Level Minneapolis Center
Fri 09:04:16 PM 40.7764 -97.2533 249° West 430 495 36,000  Level Minneapolis Center
Fri 09:05:18 PM 40.7325 -97.4069 249° West 434 499 36,000  Level Minneapolis Center
Fri 09:06:20 PM 40.6889 -97.5558 249° West 435 501 36,000  Level Minneapolis Center
Fri 09:07:22 PM 40.6461 -97.7050 249° West 434 499 36,000  Level Minneapolis Center
Fri 09:08:24 PM 40.6017 -97.8536 249° West 435 501 36,000  Level Minneapolis Center
Fri 09:09:26 PM 40.5489 -98.0319 249° West 435 501 36,000  Level Minneapolis Center
Fri 09:10:28 PM 40.5050 -98.1811 249° West 435 501 36,000  Level Minneapolis Center
Fri 09:11:30 PM 40.4603 -98.3314 249° West 438 504 36,000  Level Minneapolis Center
Fri 09:12:32 PM 40.4147 -98.4811 248° West 439 505 36,000  Level Minneapolis Center
Fri 09:13:34 PM 40.3697 -98.6322 249° West 442 509 36,000  Level Minneapolis Center
Fri 09:14:36 PM 40.3236 -98.7831 248° West 444 511 36,000  Level Minneapolis Center
Fri 09:15:38 PM 40.2769 -98.9342 248° West 445 512 36,000  Level Minneapolis Center
Fri 09:16:40 PM 40.2311 -99.0867 249° West 447 514 36,000  Level Minneapolis Center
Fri 09:17:12 PM 40.2033 -99.1753 248° West 444 511 36,000  Level Denver Center
Fri 09:18:13 PM 40.1564 -99.3250 248° West 443 510 36,000  Level Denver Center
Fri 09:19:15 PM 40.1092 -99.4775 248° West 452 520 36,000  Level Denver Center
Fri 09:20:17 PM 40.0617 -99.6269 247° West 447 514 36,000  Level Denver Center
Fri 09:21:19 PM 40.0044 -99.8072 248° West 448 516 36,000  Level Denver Center
Fri 09:22:20 PM 39.9575 -99.9569 248° West 447 514 36,000  Level Denver Center
Fri 09:23:22 PM 39.9089 -100.1081 247° West 450 518 36,000  Level Denver Center
Fri 09:24:24 PM 39.8603 -100.2586 247° West 450 518 36,000  Level Denver Center
Fri 09:25:26 PM 39.8108 -100.4117 247° West 452 520 36,000  Level Denver Center
Fri 09:26:40 PM 39.7492 -100.6014 247° West 446 513 36,000  Level Denver Center
Fri 09:27:42 PM 39.7036 -100.7442 248° West 446 513 36,000  Level Denver Center
Fri 09:28:44 PM 39.6492 -100.9078 247° West 442 509 36,000  Level Denver Center
Fri 09:29:45 PM 39.6031 -101.0478 247° West 440 506 36,000  Level Denver Center
Fri 09:30:47 PM 39.5478 -101.2142 247° West 446 513 36,000  Level Denver Center
Fri 09:31:49 PM 39.5008 -101.3556 247° West 447 514 36,000  Level Denver Center
Fri 09:32:51 PM 39.4608 -101.4725 246° West 446 513 36,000  Level Denver Center
Fri 09:33:53 PM 39.4067 -101.6364 247° West 444 511 36,000  Level Denver Center
Fri 09:34:55 PM 39.3400 -101.7933 241° Southwest 448 516 36,000  Level Denver Center
Fri 09:35:57 PM 39.2664 -101.9408 237° Southwest 442 509 36,000  Level Denver Center
Fri 09:36:59 PM 39.1836 -102.0536 227° Southwest 450 518 36,000  Level Denver Center
Fri 09:38:00 PM 39.1175 -102.1469 228° Southwest 447 514 36,000  Level Denver Center
Fri 09:39:03 PM 39.0239 -102.3067 233° Southwest 437 503 36,000  Level Denver Center
Fri 09:40:05 PM 38.9558 -102.4564 240° Southwest 434 499 36,000  Level Denver Center
Fri 09:41:06 PM 38.8986 -102.5839 240° Southwest 432 497 36,000  Level Denver Center
Fri 09:42:08 PM 38.8311 -102.7303 239° Southwest 429 494 36,000  Level Denver Center
Fri 09:43:10 PM 38.7783 -102.8450 239° Southwest 432 497 36,000  Level Denver Center
Fri 09:44:12 PM 38.7047 -103.0050 240° Southwest 436 502 36,000  Level Denver Center
Fri 09:45:14 PM 38.6422 -103.1411 240° Southwest 441 507 36,000 48 Level Denver Center
Fri 09:46:16 PM 38.5792 -103.2758 239° Southwest 443 510 36,100  Climbing Denver Center
Fri 09:47:18 PM 38.5147 -103.4147 239° Southwest 440 506 36,000 -48 Descending Denver Center
Fri 09:48:20 PM 38.4500 -103.5522 239° Southwest 442 509 36,000  Level Denver Center
Fri 09:49:22 PM 38.3894 -103.6817 239° Southwest 444 511 36,000  Level Denver Center
Fri 09:50:24 PM 38.3192 -103.8308 239° Southwest 442 509 36,000  Level Denver Center
Fri 09:51:26 PM 38.2594 -103.9567 239° Southwest 437 503 36,000  Level Denver Center
Fri 09:52:28 PM 38.1900 -104.1025 239° Southwest 434 499 36,000  Level Denver Center
Fri 09:53:30 PM 38.1297 -104.2286 239° Southwest 437 503 36,000  Level Denver Center
Fri 09:54:32 PM 38.0694 -104.3542 239° Southwest 438 504 36,000  Level Denver Center
Fri 09:55:34 PM 37.9975 -104.5022 238° Southwest 442 509 36,000  Level Denver Center
Fri 09:56:36 PM 37.9253 -104.6497 238° Southwest 443 510 36,000  Level Denver Center
Fri 09:57:38 PM 37.8650 -104.7756 239° Southwest 438 504 36,000  Level Denver Center
Fri 09:58:39 PM 37.8036 -104.9000 238° Southwest 437 503 36,000  Level Denver Center
Fri 09:59:42 PM 37.7308 -105.0475 238° Southwest 442 509 36,000  Level Denver Center
Fri 10:00:44 PM 37.6578 -105.1944 238° Southwest 445 512 36,000  Level Denver Center
Fri 10:01:46 PM 37.5950 -105.3219 238° Southwest 447 514 36,000  Level Denver Center
Fri 10:02:48 PM 37.5267 -105.4606 238° Southwest 450 518 36,000  Level Denver Center
Fri 10:03:50 PM 37.4517 -105.6094 238° Southwest 451 519 36,000  Level Denver Center
Fri 10:04:51 PM 37.3969 -105.7156 237° Southwest 452 520 36,000  Level Denver Center
Fri 10:05:53 PM 37.3194 -105.8917 241° Southwest 453 521 36,000  Level Denver Center
Fri 10:06:55 PM 37.2711 -106.0289 246° West 450 518 36,000  Level Denver Center
Fri 10:07:57 PM 37.2147 -106.1906 246° West 451 519 36,000  Level Denver Center
Fri 10:08:59 PM 37.1644 -106.3286 245° Southwest 453 521 36,000  Level Denver Center
Fri 10:10:01 PM 37.1147 -106.4664 246° West 453 521 36,000  Level Denver Center
Fri 10:11:03 PM 37.0569 -106.6258 246° West 451 519 36,000  Level Denver Center
Fri 10:12:05 PM 37.0144 -106.7400 245° Southwest 452 520 36,000  Level Denver Center
Fri 10:13:07 PM 36.9450 -106.9231 245° Southwest 456 525 36,000  Level Denver Center
Fri 10:14:09 PM 36.8953 -107.0617 246° West 457 526 36,000  Level Denver Center
Fri 10:15:11 PM 36.8347 -107.2203 245° Southwest 453 521 36,000  Level Denver Center
Fri 10:16:12 PM 36.7917 -107.3333 245° Southwest 452 520 36,000  Level Denver Center
Fri 10:17:15 PM 36.7264 -107.5150 246° West 451 519 36,000  Level Denver Center
Fri 10:18:29 PM 36.6739 -107.6503 244° Southwest 453 521 36,000  Level Denver Center
Fri 10:19:31 PM 36.6061 -107.8308 245° Southwest 453 521 36,000  Level Denver Center
Fri 10:20:33 PM 36.5544 -107.9681 245° Southwest 456 525 36,000  Level Denver Center
Fri 10:21:35 PM 36.4919 -108.1275 244° Southwest 458 527 36,000  Level Denver Center
Fri 10:22:36 PM 36.4394 -108.2672 245° Southwest 464 534 36,000  Level Denver Center
Fri 10:23:38 PM 36.3769 -108.4289 244° Southwest 467 537 36,000  Level Denver Center
Fri 10:24:40 PM 36.3247 -108.5656 245° Southwest 462 532 36,000  Level Denver Center
Fri 10:25:42 PM 36.2622 -108.7261 244° Southwest 464 534 36,000  Level Denver Center
Fri 10:26:44 PM 36.2100 -108.8633 245° Southwest 466 536 36,000  Level Denver Center
Fri 10:27:45 PM 36.1461 -109.0236 244° Southwest 474 545 36,000  Level Denver Center
Fri 10:28:47 PM 36.0903 -109.1589 243° Southwest 470 541 36,000  Level Denver Center
Fri 10:29:49 PM 36.0256 -109.3194 244° Southwest 468 539 36,000  Level Denver Center
Fri 10:30:51 PM 35.9708 -109.4567 244° Southwest 469 540 36,000  Level Denver Center
Fri 10:31:52 PM 35.9067 -109.6150 243° Southwest 464 534 36,000  Level Denver Center
Fri 10:32:54 PM 35.8522 -109.7494 243° Southwest 460 529 36,000  Level Denver Center
Fri 10:33:56 PM 35.7975 -109.8842 243° Southwest 459 528 36,000  Level Denver Center
Fri 10:34:58 PM 35.7344 -110.0419 244° Southwest 460 529 36,000  Level Denver Center
Fri 10:35:59 PM 35.6828 -110.1667 243° Southwest 460 529 36,000  Level Denver Center
Fri 10:37:01 PM 35.6133 -110.3347 243° Southwest 460 529 36,000  Level Denver Center
Fri 10:37:53 PM 35.5683 -110.4422 243° Southwest 457 526 36,000  Level Los Angeles Center
Fri 10:38:55 PM 35.5125 -110.5811 244° Southwest 457 526 36,000  Level Los Angeles Center
Fri 10:39:56 PM 35.4539 -110.7203 243° Southwest 461 531 36,000  Level Los Angeles Center
Fri 10:40:58 PM 35.3958 -110.8583 243° Southwest 459 528 36,000  Level Los Angeles Center
Fri 10:42:00 PM 35.3250 -111.0286 243° Southwest 464 534 36,000  Level Los Angeles Center
Fri 10:43:01 PM 35.2708 -111.1725 245° Southwest 467 537 36,000 49 Level Los Angeles Center
Fri 10:44:03 PM 35.2342 -111.2911 249° West 466 536 36,100  Climbing Los Angeles Center
Fri 10:45:05 PM 35.1778 -111.4669 249° West 465 535 36,000 -49 Descending Los Angeles Center
Fri 10:46:06 PM 35.1317 -111.6133 249° West 464 534 36,000  Level Los Angeles Center
Fri 10:47:08 PM 35.0847 -111.7603 249° West 466 536 36,000  Level Los Angeles Center
Fri 10:48:10 PM 35.0378 -111.9072 249° West 466 536 36,000  Level Los Angeles Center
Fri 10:49:12 PM 34.9811 -112.0808 248° West 468 539 36,000  Level Los Angeles Center
Fri 10:50:13 PM 34.9339 -112.2292 249° West 470 541 36,000 44 Level Los Angeles Center
Fri 10:51:27 PM 34.8853 -112.3761 248° West 470 541 36,100  Climbing Los Angeles Center
Fri 10:52:29 PM 34.8369 -112.5222 248° West 467 537 36,000 -48 Descending Los Angeles Center
Fri 10:53:31 PM 34.7792 -112.6981 248° West 466 536 36,000  Level Los Angeles Center
Fri 10:54:39 PM 34.7250 -112.8706 249° West 460 529 36,000 -698 Level Albuquerque Center
Fri 10:55:40 PM 34.6769 -113.0133 248° West 457 526 34,500 -984 Descending Albuquerque Center
Fri 10:56:41 PM 34.6281 -113.1583 248° West 461 531 34,000 -246 Descending Albuquerque Center
Fri 10:57:42 PM 34.5783 -113.3047 248° West 468 539 34,000  Level Albuquerque Center
Fri 10:58:44 PM 34.5289 -113.4522 248° West 471 542 34,000  Level Albuquerque Center
Fri 10:59:45 PM 34.4675 -113.6267 247° West 472 543 34,000  Level Albuquerque Center
Fri 11:00:46 PM 34.4142 -113.7828 248° West 481 554 34,000  Level Albuquerque Center
Fri 11:01:48 PM 34.3631 -113.9317 247° West 481 554 34,000  Level Albuquerque Center
Fri 11:02:49 PM 34.3125 -114.0797 248° West 477 549 34,000  Level Albuquerque Center
Fri 11:03:51 PM 34.2603 -114.2269 247° West 476 548 34,000 -341 Level Albuquerque Center
Fri 11:04:52 PM 34.2097 -114.3750 248° West 475 547 33,300 -1,438 Descending Albuquerque Center
Fri 11:05:52 PM 34.1633 -114.5128 248° West 478 550 31,100 -2,410 Descending Los Angeles Center
Fri 11:06:54 PM 34.1106 -114.6592 247° West 477 549 28,400 -1,561 Descending Los Angeles Center
Fri 11:07:55 PM 34.0525 -114.7983 243° Southwest 469 540 27,900 -244 Descending Los Angeles Center
Fri 11:08:57 PM 33.9786 -114.9639 242° Southwest 466 536 27,900 48 Level Los Angeles Center
Fri 11:09:59 PM 33.9181 -115.1003 242° Southwest 463 533 28,000 49 Climbing Los Angeles Center
Fri 11:11:00 PM 33.8567 -115.2383 242° Southwest 468 539 28,000  Level Los Angeles Center
Fri 11:12:02 PM 33.7953 -115.3733 241° Southwest 463 533 28,000  Level Los Angeles Center
Fri 11:13:04 PM 33.7356 -115.5092 242° Southwest 462 532 28,000 -146 Level Los Angeles Center
Fri 11:14:05 PM 33.6742 -115.6456 242° Southwest 465 535 27,700 -927 Descending Los Angeles Center
Fri 11:15:07 PM 33.6119 -115.7789 241° Southwest 462 532 26,100 -1,887 Descending Los Angeles Center
Fri 11:16:09 PM 33.5156 -115.9092 228° Southwest 443 510 23,800 -2,146 Descending Los Angeles Center
Fri 11:17:10 PM 33.4250 -116.0031 221° Southwest 433 498 21,700 -2,049 Descending Los Angeles Center
Fri 11:18:12 PM 33.3392 -116.0947 222° Southwest 421 484 19,600 -2,032 Descending Los Angeles Center
Fri 11:19:14 PM 33.2553 -116.1828 221° Southwest 404 465 17,500 -1,756 Descending Los Angeles Center
Fri 11:20:15 PM 33.1747 -116.2681 222° Southwest 393 452 16,000 -1,525 Descending Los Angeles Center
Fri 11:21:16 PM 33.1164 -116.3283 221° Southwest 366 421 14,400 -1,756 Descending Los Angeles Center
Fri 11:22:18 PM 33.0297 -116.4194 221° Southwest 333 383 12,400 -1,452 Descending Los Angeles Center
Fri 11:23:20 PM 32.9522 -116.4739 211° Southwest 328 377 11,400 -926 Descending Los Angeles Center
Fri 11:24:34 PM 32.8647 -116.5261 207° Southwest 324 373 10,300 -1,059 Descending Los Angeles Center
Fri 11:25:36 PM 32.8042 -116.6153 231° Southwest 299 344 9,000 -1,171 Descending Los Angeles Center
Fri 11:26:37 PM 32.7644 -116.6969 240° Southwest 289 333 7,900 -1,415 Descending Los Angeles Center
Fri 11:27:39 PM 32.7181 -116.7942 240° Southwest 283 326 6,100 -1,161 Descending Los Angeles Center
Fri 11:28:41 PM 32.6875 -116.8783 247° West 280 322 5,500 -774 Descending Los Angeles Center
Fri 11:29:43 PM 32.6761 -116.9558 260° West 249 287 4,500 -1,033 Descending Los Angeles Center
Fri 11:30:43 PM 32.7000 -117.0167 295° West 176 203 3,400 -1,238 Descending Southern California TRACON
Fri 11:31:49 PM 32.7000 -117.0833 270° West 166 191 1,900 -1,364 Descending Southern California TRACON

Login

Don't have an account? Register now (free) for customized features, flight alerts, and more!